Weather at Mengen-Hohentengen Airport

Public forecast

Using degrees Celsius for public forecast. Weather courtesy of forecast.io.

Closest aviation weather report (METAR) to Mengen-Hohentengen Airport

Closest report is Friedrichshafen Airport, 23.6 nm (43.8 km) SSE. Retrieved 2020/09/18 13:20 UTC (27 minutes ago):

EDNY 181320Z 35006KT 9999 FEW029 21/15 Q1022

Closest aviation forecast (TAF) to Mengen-Hohentengen Airport

Closest forecast is Friedrichshafen Airport, 23.6 nm (43.8 km) SSE. Retrieved 2020/09/18 12:27 UTC (1 hour ago):

TAF EDNY 181100Z 1812/1912 03005KT 9999 SCT025 BECMG 1902/1904 BKN005 BECMG 1908/1910 SCT010 TEMPO 1910/1912 VRB03KT